createdAt,value
2018-09-13T00:00:49.651Z,1.80
2018-09-13T00:03:17.029Z,2.08
2018-09-13T00:05:44.433Z,2.08
2018-09-13T00:08:11.834Z,2.40
2018-09-13T00:10:39.720Z,2.40
2018-09-13T00:13:07.671Z,2.40
2018-09-13T00:15:35.745Z,2.47
2018-09-13T00:18:03.184Z,3.85
2018-09-13T00:20:31.483Z,2.58
2018-09-13T00:22:58.969Z,2.50
2018-09-13T00:27:57.409Z,2.70
2018-09-13T00:30:24.934Z,2.83
2018-09-13T00:32:52.545Z,2.60
2018-09-13T00:35:20.910Z,2.62
2018-09-13T00:37:49.008Z,2.62
2018-09-13T00:40:16.446Z,2.83
2018-09-13T00:42:43.849Z,2.58
2018-09-13T00:45:11.305Z,3.35
2018-09-13T00:47:44.462Z,3.40
2018-09-13T00:50:12.851Z,3.22
2018-09-13T00:52:40.197Z,3.42
2018-09-13T00:55:07.656Z,3.05
2018-09-13T00:57:35.087Z,4.47
2018-09-13T01:00:02.539Z,3.30
2018-09-13T01:02:29.913Z,2.80
2018-09-13T01:04:57.294Z,3.10
2018-09-13T01:07:24.659Z,2.65
2018-09-13T01:09:53.440Z,3.10
2018-09-13T01:12:21.253Z,3.08
2018-09-13T01:14:48.635Z,2.85
2018-09-13T01:17:16.399Z,2.90
2018-09-13T01:19:43.807Z,3.10
2018-09-13T01:22:11.200Z,3.42
2018-09-13T01:24:38.611Z,3.58
2018-09-13T01:27:05.996Z,3.50
2018-09-13T01:29:33.402Z,3.75
2018-09-13T01:32:00.856Z,3.30
2018-09-13T01:34:29.184Z,3.55
2018-09-13T01:36:56.580Z,3.70
2018-09-13T01:39:24.607Z,3.77
2018-09-13T01:41:52.059Z,3.62
2018-09-13T01:44:19.468Z,4.22
2018-09-13T01:46:46.903Z,4.05
2018-09-13T01:49:14.458Z,6.95
2018-09-13T01:51:41.890Z,4.22
2018-09-13T01:54:09.843Z,5.17
2018-09-13T01:56:38.051Z,3.95
2018-09-13T01:59:09.656Z,4.25
2018-09-13T02:01:36.991Z,4.60
2018-09-13T02:04:04.427Z,4.75
2018-09-13T02:06:31.785Z,4.60
2018-09-13T02:08:59.306Z,4.65
2018-09-13T02:11:26.700Z,5.17
2018-09-13T02:13:54.651Z,5.62
2018-09-13T02:16:22.465Z,5.15
2018-09-13T02:18:49.872Z,5.42
2018-09-13T02:21:17.348Z,6.80
2018-09-13T02:23:44.892Z,5.72
2018-09-13T02:26:12.450Z,6.35
2018-09-13T02:28:40.042Z,5.60
2018-09-13T02:31:07.512Z,5.97
2018-09-13T02:33:35.674Z,6.20
2018-09-13T02:36:03.106Z,6.85
2018-09-13T02:38:31.472Z,5.78
2018-09-13T02:40:58.940Z,6.00
2018-09-13T02:43:30.394Z,6.40
2018-09-13T02:45:57.884Z,6.80
2018-09-13T02:48:25.295Z,6.03
2018-09-13T02:50:52.700Z,6.53
2018-09-13T02:53:21.113Z,6.40
2018-09-13T02:55:48.835Z,5.72
2018-09-13T02:58:16.215Z,6.10
2018-09-13T03:03:11.511Z,5.65
2018-09-13T03:05:38.906Z,5.97
2018-09-13T03:08:06.292Z,6.87
2018-09-13T03:10:33.698Z,6.80
2018-09-13T03:13:01.140Z,7.40
2018-09-13T03:15:28.524Z,7.40
2018-09-13T03:18:00.430Z,6.62
2018-09-13T03:20:27.791Z,7.00
2018-09-13T03:22:55.148Z,7.20
2018-09-13T03:25:23.758Z,7.42
2018-09-13T03:27:51.470Z,7.50
2018-09-13T03:30:19.656Z,7.33
2018-09-13T03:32:48.458Z,6.47
2018-09-13T03:35:22.885Z,7.58
2018-09-13T03:37:50.253Z,7.35
2018-09-13T03:40:17.691Z,6.95
2018-09-13T03:42:45.047Z,7.55
2018-09-13T03:45:12.715Z,5.85
2018-09-13T03:47:40.221Z,8.80
2018-09-13T03:50:08.331Z,7.72
2018-09-13T03:52:40.161Z,8.10
2018-09-13T03:55:07.583Z,8.63
2018-09-13T03:57:37.988Z,9.23
2018-09-13T04:00:09.606Z,9.28
2018-09-13T04:02:36.994Z,7.72
2018-09-13T04:05:04.512Z,7.60
2018-09-13T04:07:31.865Z,7.28
2018-09-13T04:10:00.062Z,7.05
2018-09-13T04:12:27.455Z,7.78
2018-09-13T04:14:54.964Z,8.05
2018-09-13T04:17:22.336Z,7.83
2018-09-13T04:19:49.741Z,7.25
2018-09-13T04:22:17.674Z,8.68
2018-09-13T04:24:45.454Z,7.58
2018-09-13T04:27:13.459Z,7.90
2018-09-13T04:29:41.234Z,8.13
2018-09-13T04:32:08.662Z,7.62
2018-09-13T04:34:36.500Z,7.20
2018-09-13T04:37:03.877Z,8.43
2018-09-13T04:39:31.240Z,7.25
2018-09-13T04:41:58.714Z,6.85
2018-09-13T04:44:26.796Z,8.68
2018-09-13T04:46:54.210Z,7.15
2018-09-13T04:51:48.498Z,8.38
2018-09-13T04:54:19.868Z,8.03
2018-09-13T04:56:47.202Z,7.95
2018-09-13T04:59:14.506Z,7.80
2018-09-13T05:01:42.643Z,8.73
2018-09-13T05:04:10.706Z,8.90
2018-09-13T05:06:38.152Z,8.80
2018-09-13T05:09:08.865Z,8.20
2018-09-13T05:11:36.173Z,8.93
2018-09-13T05:14:03.490Z,8.50
2018-09-13T05:16:30.793Z,8.35
2018-09-13T05:18:58.213Z,8.23
2018-09-13T05:21:25.507Z,7.95
2018-09-13T05:23:52.780Z,7.70
2018-09-13T05:26:20.367Z,7.97
2018-09-13T05:28:47.665Z,8.35
2018-09-13T05:31:14.970Z,8.08
2018-09-13T05:33:42.277Z,8.70
2018-09-13T05:36:09.625Z,8.50
2018-09-13T05:38:36.983Z,7.45
2018-09-13T05:41:04.282Z,8.33
2018-09-13T05:43:31.625Z,8.35
2018-09-13T05:45:58.933Z,7.78
2018-09-13T05:48:26.262Z,7.22
2018-09-13T05:50:53.842Z,7.75
2018-09-13T05:53:21.413Z,7.17
2018-09-13T05:55:48.661Z,8.60
2018-09-13T05:58:15.922Z,7.28
2018-09-13T06:00:43.215Z,6.62
2018-09-13T06:03:10.517Z,7.15
2018-09-13T06:05:38.415Z,6.92
2018-09-13T06:08:05.771Z,6.33
2018-09-13T06:10:33.786Z,6.42
2018-09-13T06:13:01.156Z,6.45
2018-09-13T06:15:28.486Z,7.00
2018-09-13T06:17:55.912Z,8.30
2018-09-13T06:20:23.530Z,7.10
2018-09-13T06:22:50.867Z,8.93
2018-09-13T06:25:18.173Z,7.87
2018-09-13T06:27:45.456Z,9.00
2018-09-13T06:30:12.763Z,7.22
2018-09-13T06:32:40.058Z,7.72
2018-09-13T06:35:07.350Z,8.45
2018-09-13T06:37:34.666Z,8.53
2018-09-13T06:40:02.054Z,8.30
2018-09-13T06:42:29.426Z,8.83
2018-09-13T06:44:56.675Z,7.20
2018-09-13T06:47:23.925Z,7.70
2018-09-13T06:49:51.279Z,8.20
2018-09-13T06:52:18.885Z,7.40
2018-09-13T06:54:46.196Z,6.70
2018-09-13T06:57:13.480Z,6.85
2018-09-13T06:59:40.782Z,7.75
2018-09-13T07:02:08.026Z,7.12
2018-09-13T07:04:35.386Z,6.25
2018-09-13T07:07:02.681Z,6.08
2018-09-13T07:09:29.948Z,6.78
2018-09-13T07:11:57.299Z,6.83
2018-09-13T07:14:24.582Z,7.00
2018-09-13T07:16:51.845Z,6.33
2018-09-13T07:19:19.161Z,8.75
2018-09-13T07:21:46.513Z,7.08
2018-09-13T07:24:13.827Z,6.00
2018-09-13T07:26:41.149Z,5.78
2018-09-13T07:29:08.425Z,5.58
2018-09-13T07:31:35.809Z,6.20
2018-09-13T07:34:03.057Z,6.30
2018-09-13T07:36:30.607Z,6.65
2018-09-13T07:38:58.529Z,6.15
2018-09-13T07:41:25.827Z,5.58
2018-09-13T07:43:53.143Z,4.85
2018-09-13T07:46:20.467Z,5.80
2018-09-13T07:48:47.725Z,4.80
2018-09-13T07:51:15.060Z,4.50
2018-09-13T07:53:42.350Z,4.45
2018-09-13T07:56:09.729Z,4.05
2018-09-13T07:58:37.036Z,3.42
2018-09-13T08:01:04.366Z,3.80
2018-09-13T08:03:32.057Z,4.00
2018-09-13T08:05:59.350Z,3.60
2018-09-13T08:08:26.686Z,3.40
2018-09-13T08:10:53.949Z,3.12
2018-09-13T08:13:21.455Z,4.20
2018-09-13T08:15:48.778Z,4.00
2018-09-13T08:18:16.208Z,3.02
2018-09-13T08:20:43.567Z,3.22
2018-09-13T08:23:10.870Z,3.58
2018-09-13T08:25:38.434Z,3.35
2018-09-13T08:28:06.282Z,3.00
2018-09-13T08:30:33.823Z,2.70
2018-09-13T08:33:01.357Z,3.10
2018-09-13T08:35:28.902Z,3.58
2018-09-13T08:37:56.447Z,3.50
2018-09-13T08:40:24.804Z,3.05
2018-09-13T08:42:53.042Z,3.67
2018-09-13T08:45:20.341Z,3.87
2018-09-13T08:47:47.953Z,3.80
2018-09-13T08:50:15.392Z,3.67
2018-09-13T08:52:42.685Z,3.40
2018-09-13T08:55:10.555Z,3.65
2018-09-13T08:57:38.273Z,3.75
2018-09-13T09:00:06.740Z,3.77
2018-09-13T09:02:34.322Z,3.42
2018-09-13T09:05:01.604Z,4.30
2018-09-13T09:07:28.918Z,4.10
2018-09-13T09:09:56.848Z,5.17
2018-09-13T09:12:24.218Z,4.78
2018-09-13T09:14:51.524Z,3.90
2018-09-13T09:17:18.879Z,4.70
2018-09-13T09:19:46.144Z,4.03
2018-09-13T09:22:13.435Z,5.12
2018-09-13T09:24:40.735Z,5.35
2018-09-13T09:27:08.338Z,5.47
2018-09-13T09:29:35.667Z,5.25
2018-09-13T09:32:02.958Z,5.20
2018-09-13T09:34:30.276Z,4.85
2018-09-13T09:36:57.587Z,4.75
2018-09-13T09:39:24.897Z,5.28
2018-09-13T09:41:52.159Z,5.22
2018-09-13T09:44:19.474Z,5.12
2018-09-13T09:46:46.776Z,6.03
2018-09-13T09:49:14.163Z,4.92
2018-09-13T09:51:41.835Z,5.40
2018-09-13T09:54:09.181Z,5.20
2018-09-13T09:56:36.587Z,6.20
2018-09-13T09:59:03.899Z,5.85
2018-09-13T10:01:33.851Z,5.65
2018-09-13T10:04:01.360Z,5.42
2018-09-13T10:06:28.646Z,5.40
2018-09-13T10:08:56.747Z,5.45
2018-09-13T10:11:23.967Z,6.83
2018-09-13T10:13:51.265Z,5.95
2018-09-13T10:16:23.932Z,5.08
2018-09-13T10:18:56.577Z,5.55
2018-09-13T10:21:29.253Z,6.30
2018-09-13T10:24:01.918Z,5.42
2018-09-13T10:26:34.679Z,5.50
2018-09-13T10:29:07.350Z,5.65
2018-09-13T10:31:40.136Z,4.80
2018-09-13T10:34:12.873Z,5.30
2018-09-13T10:36:45.535Z,6.50
2018-09-13T10:39:18.415Z,5.25
2018-09-13T10:41:52.131Z,4.85
2018-09-13T10:44:24.921Z,4.60
2018-09-13T10:46:57.667Z,4.30
2018-09-13T10:49:30.422Z,5.28
2018-09-13T10:51:59.859Z,4.95
2018-09-13T10:54:33.552Z,4.50
2018-09-13T10:57:05.174Z,4.83
2018-09-13T10:59:32.545Z,4.95
2018-09-13T11:01:59.985Z,5.40
2018-09-13T11:04:27.338Z,5.70
2018-09-13T11:06:54.575Z,5.00
2018-09-13T11:09:21.884Z,5.33
2018-09-13T11:11:50.103Z,5.12
2018-09-13T11:14:22.682Z,5.60
2018-09-13T11:16:50.022Z,5.37
2018-09-13T11:19:17.410Z,4.92
2018-09-13T11:21:44.762Z,4.72
2018-09-13T11:24:12.076Z,5.28
2018-09-13T11:26:39.486Z,4.95
2018-09-13T11:29:06.895Z,5.22
2018-09-13T11:31:34.286Z,5.25
2018-09-13T11:34:01.619Z,4.70
2018-09-13T11:36:29.304Z,4.78
2018-09-13T11:38:56.618Z,4.30
2018-09-13T11:41:24.211Z,4.20
2018-09-13T11:43:51.523Z,4.35
2018-09-13T11:46:18.914Z,3.90
2018-09-13T11:48:46.455Z,4.00
2018-09-13T11:51:13.829Z,4.47
2018-09-13T11:53:41.135Z,4.50
2018-09-13T11:56:08.422Z,4.35
2018-09-13T11:58:35.726Z,4.30
2018-09-13T12:01:03.061Z,4.35
2018-09-13T12:03:30.329Z,4.75
2018-09-13T12:05:58.343Z,4.67
2018-09-13T12:08:25.644Z,4.50
2018-09-13T12:10:52.931Z,4.58
2018-09-13T12:13:20.249Z,4.58
2018-09-13T12:15:47.559Z,4.72
2018-09-13T12:18:14.909Z,4.10
2018-09-13T12:20:42.163Z,5.10
2018-09-13T12:23:09.425Z,4.42
2018-09-13T12:25:36.766Z,4.35
2018-09-13T12:28:04.138Z,5.17
2018-09-13T12:30:31.406Z,4.20
2018-09-13T12:32:58.673Z,4.10
2018-09-13T12:35:25.983Z,5.15
2018-09-13T12:37:53.691Z,5.15
2018-09-13T12:40:21.033Z,4.50
2018-09-13T12:42:48.910Z,4.85
2018-09-13T12:45:16.250Z,5.78
2018-09-13T12:47:43.554Z,5.08
2018-09-13T12:50:10.913Z,4.37
2018-09-13T12:52:38.350Z,5.35
2018-09-13T12:55:05.793Z,4.75
2018-09-13T12:57:33.092Z,4.92
2018-09-13T13:00:00.430Z,5.85
2018-09-13T13:02:27.742Z,4.85
2018-09-13T13:04:55.438Z,4.28
2018-09-13T13:07:22.740Z,5.12
2018-09-13T13:09:50.023Z,4.50
2018-09-13T13:12:17.348Z,4.35
2018-09-13T13:14:44.689Z,5.25
2018-09-13T13:17:11.963Z,4.55
2018-09-13T13:19:39.281Z,4.30
2018-09-13T13:22:06.706Z,5.08
2018-09-13T13:24:34.055Z,4.75
2018-09-13T13:27:01.368Z,5.17
2018-09-13T13:29:28.685Z,5.10
2018-09-13T13:31:56.067Z,4.55
2018-09-13T13:34:23.370Z,4.78
2018-09-13T13:36:50.755Z,3.98
2018-09-13T13:39:18.089Z,4.97
2018-09-13T13:41:45.437Z,4.70
2018-09-13T13:44:12.737Z,3.62
2018-09-13T13:46:40.012Z,3.92
2018-09-13T13:49:07.489Z,3.33
2018-09-13T13:51:34.794Z,3.60
2018-09-13T13:54:02.147Z,3.05
2018-09-13T13:56:29.416Z,3.22
2018-09-13T13:58:56.924Z,2.90
2018-09-13T14:01:24.251Z,2.87
2018-09-13T14:03:51.568Z,3.00
2018-09-13T14:06:18.827Z,3.10
2018-09-13T14:08:46.159Z,3.40
2018-09-13T14:11:13.450Z,3.08
2018-09-13T14:13:41.049Z,3.52
2018-09-13T14:16:08.605Z,3.30
2018-09-13T14:18:35.944Z,3.58
2018-09-13T14:21:03.258Z,4.10
2018-09-13T14:23:30.679Z,3.40
2018-09-13T14:25:58.461Z,3.83
2018-09-13T14:28:25.762Z,4.42
2018-09-13T14:30:53.098Z,3.85
2018-09-13T14:33:20.486Z,3.62
2018-09-13T14:35:47.775Z,4.17
2018-09-13T14:38:15.124Z,3.95
2018-09-13T14:40:42.445Z,3.92
2018-09-13T14:43:09.774Z,4.20
2018-09-13T14:45:37.201Z,4.30
2018-09-13T14:48:05.263Z,3.83
2018-09-13T14:50:32.561Z,4.50
2018-09-13T14:52:59.894Z,4.35
2018-09-13T14:55:27.313Z,4.83
2018-09-13T14:57:54.648Z,4.25
2018-09-13T15:00:22.610Z,4.40
2018-09-13T15:02:49.918Z,4.10
2018-09-13T15:05:17.329Z,4.10
2018-09-13T15:07:44.648Z,3.92
2018-09-13T15:10:12.054Z,3.75
2018-09-13T15:12:39.882Z,4.72
2018-09-13T15:15:07.401Z,3.55
2018-09-13T15:17:34.760Z,4.42
2018-09-13T15:20:02.848Z,3.50
2018-09-13T15:22:30.291Z,4.25
2018-09-13T15:24:57.593Z,4.50
2018-09-13T15:27:24.907Z,4.45
2018-09-13T15:29:52.312Z,5.03
2018-09-13T15:32:19.740Z,3.70
2018-09-13T15:34:47.041Z,4.90
2018-09-13T15:37:14.339Z,4.40
2018-09-13T15:39:41.602Z,4.42
2018-09-13T15:42:08.920Z,5.28
2018-09-13T15:44:36.287Z,4.05
2018-09-13T15:47:03.647Z,4.30
2018-09-13T15:49:30.935Z,4.20
2018-09-13T15:51:58.284Z,4.30
2018-09-13T15:54:25.603Z,4.40
2018-09-13T15:56:52.934Z,4.08
2018-09-13T15:59:20.281Z,4.50
2018-09-13T16:01:47.614Z,4.90
2018-09-13T16:04:14.931Z,4.00
2018-09-13T16:06:42.230Z,4.50
2018-09-13T16:09:10.151Z,4.62
2018-09-13T16:11:37.765Z,4.35
2018-09-13T16:14:05.101Z,4.53
2018-09-13T16:16:32.578Z,4.17
2018-09-13T16:18:59.918Z,3.90
2018-09-13T16:21:27.218Z,4.00
2018-09-13T16:23:54.523Z,4.10
2018-09-13T16:26:21.927Z,3.60
2018-09-13T16:28:49.198Z,4.30
2018-09-13T16:31:16.584Z,4.40
2018-09-13T16:33:43.788Z,5.12
2018-09-13T16:36:16.616Z,3.65
2018-09-13T16:38:49.381Z,4.08
2018-09-13T16:41:22.090Z,3.83
2018-09-13T16:43:54.853Z,4.35
2018-09-13T16:46:27.586Z,3.58
2018-09-13T16:48:55.163Z,3.72
2018-09-13T16:51:22.456Z,3.62
2018-09-13T16:53:49.776Z,4.17
2018-09-13T16:56:17.060Z,3.70
2018-09-13T16:58:44.408Z,4.53
2018-09-13T17:01:11.784Z,5.00
2018-09-13T17:03:39.094Z,3.50
2018-09-13T17:06:06.387Z,4.15
2018-09-13T17:08:33.682Z,4.30
2018-09-13T17:11:01.024Z,4.75
2018-09-13T17:13:28.376Z,3.95
2018-09-13T17:15:55.792Z,4.47
2018-09-13T17:18:23.097Z,4.37
2018-09-13T17:20:50.410Z,4.03
2018-09-13T17:23:18.487Z,4.25
2018-09-13T17:25:45.830Z,3.92
2018-09-13T17:28:13.214Z,3.35
2018-09-13T17:30:40.567Z,3.90
2018-09-13T17:33:07.869Z,4.22
2018-09-13T17:35:35.234Z,4.05
2018-09-13T17:38:03.252Z,3.95
2018-09-13T17:42:57.503Z,4.35
2018-09-13T17:45:24.895Z,4.55
2018-09-13T17:47:52.505Z,4.17
2018-09-13T17:50:20.053Z,4.55
2018-09-13T17:52:47.559Z,4.70
2018-09-13T17:55:15.921Z,4.25
2018-09-13T17:57:43.293Z,5.22
2018-09-13T18:00:11.610Z,4.37
2018-09-13T18:02:39.022Z,4.60
2018-09-13T18:05:06.744Z,4.53
2018-09-13T18:07:34.244Z,3.90
2018-09-13T18:10:01.667Z,4.25
2018-09-13T18:12:29.043Z,4.30
2018-09-13T18:14:56.466Z,4.37
2018-09-13T18:17:23.918Z,3.65
2018-09-13T18:19:51.340Z,3.60
2018-09-13T18:22:20.665Z,4.33
2018-09-13T18:24:48.632Z,4.10
2018-09-13T18:27:16.617Z,4.37
2018-09-13T18:29:44.778Z,5.08
2018-09-13T18:32:12.110Z,4.47
2018-09-13T18:34:39.522Z,4.53
2018-09-13T18:37:11.408Z,5.50
2018-09-13T18:39:38.971Z,5.05
2018-09-13T18:42:06.565Z,5.90
2018-09-13T18:44:34.225Z,5.08
2018-09-13T18:47:02.505Z,4.78
2018-09-13T18:49:30.046Z,5.45
2018-09-13T18:52:01.898Z,5.12
2018-09-13T18:54:35.262Z,4.58
2018-09-13T18:57:03.615Z,5.10
2018-09-13T18:59:31.121Z,4.62
2018-09-13T19:01:58.567Z,5.58
2018-09-13T19:04:25.942Z,5.33
2018-09-13T19:06:53.352Z,4.95
2018-09-13T19:09:25.807Z,5.55
2018-09-13T19:11:57.213Z,5.70
2018-09-13T19:14:25.219Z,5.60
2018-09-13T19:16:52.615Z,5.35
2018-09-13T19:19:19.999Z,5.15
2018-09-13T19:21:47.422Z,5.65
2018-09-13T19:24:14.826Z,6.50
2018-09-13T19:26:42.868Z,5.60
2018-09-13T19:29:10.986Z,5.67
2018-09-13T19:31:38.407Z,5.35
2018-09-13T19:34:06.981Z,5.00
2018-09-13T19:36:34.350Z,5.62
2018-09-13T19:39:06.056Z,5.67
2018-09-13T19:41:33.545Z,6.05
2018-09-13T19:44:01.372Z,6.30
2018-09-13T19:46:29.107Z,6.85
2018-09-13T19:48:57.087Z,6.30
2018-09-13T19:51:24.570Z,6.92
2018-09-13T19:53:53.013Z,7.33
2018-09-13T19:56:20.500Z,6.92
2018-09-13T19:58:47.896Z,6.58
2018-09-13T20:01:19.667Z,6.47
2018-09-13T20:03:51.312Z,7.20
2018-09-13T20:06:18.667Z,5.92
2018-09-13T20:08:46.460Z,6.85
2018-09-13T20:11:13.955Z,6.10
2018-09-13T20:13:41.819Z,6.70
2018-09-13T20:16:09.135Z,5.25
2018-09-13T20:18:36.589Z,5.15
2018-09-13T20:21:03.813Z,6.40
2018-09-13T20:23:31.549Z,5.85
2018-09-13T20:25:58.915Z,6.17
2018-09-13T20:28:26.304Z,6.45
2018-09-13T20:30:53.695Z,5.90
2018-09-13T20:33:21.191Z,6.37
2018-09-13T20:35:48.723Z,6.50
2018-09-13T20:38:16.430Z,7.15
2018-09-13T20:40:48.330Z,6.15
2018-09-13T20:43:15.715Z,7.75
2018-09-13T20:45:44.957Z,7.25
2018-09-13T20:48:12.241Z,8.05
2018-09-13T20:50:43.550Z,7.90
2018-09-13T20:53:11.485Z,7.62
2018-09-13T20:55:39.531Z,8.00
2018-09-13T20:58:07.213Z,7.55
2018-09-13T21:00:34.690Z,6.80
2018-09-13T21:03:02.037Z,6.83
2018-09-13T21:05:29.464Z,6.70
2018-09-13T21:07:56.860Z,6.50
2018-09-13T21:10:28.777Z,6.85
2018-09-13T21:13:00.774Z,7.50
2018-09-13T21:15:32.613Z,8.95
2018-09-13T21:18:01.426Z,8.40
2018-09-13T21:20:29.232Z,8.78
2018-09-13T21:22:56.698Z,8.03
2018-09-13T21:25:24.074Z,7.92
2018-09-13T21:27:51.434Z,7.05
2018-09-13T21:30:19.370Z,8.03
2018-09-13T21:32:46.772Z,7.65
2018-09-13T21:35:14.979Z,7.35
2018-09-13T21:37:43.077Z,8.30
2018-09-13T21:40:10.669Z,8.20
2018-09-13T21:42:38.624Z,8.25
2018-09-13T21:45:06.062Z,7.83
2018-09-13T21:47:33.626Z,7.72
2018-09-13T21:50:00.996Z,7.00
2018-09-13T21:52:32.783Z,7.83
2018-09-13T21:55:00.175Z,7.87
2018-09-13T21:57:27.543Z,8.30
2018-09-13T21:59:54.886Z,7.53
2018-09-13T22:02:22.396Z,7.45
2018-09-13T22:04:49.785Z,7.25
2018-09-13T22:07:17.493Z,7.25
2018-09-13T22:09:44.847Z,7.42
2018-09-13T22:12:12.965Z,8.05
2018-09-13T22:14:41.259Z,7.53
2018-09-13T22:17:09.164Z,7.90
2018-09-13T22:19:36.557Z,8.13
2018-09-13T22:22:03.984Z,8.00
2018-09-13T22:24:31.642Z,9.08
2018-09-13T22:27:00.266Z,7.37
2018-09-13T22:29:27.577Z,6.60
2018-09-13T22:31:55.911Z,6.60
2018-09-13T22:34:23.408Z,7.80
2018-09-13T22:36:50.821Z,7.80
2018-09-13T22:39:19.219Z,7.55
2018-09-13T22:41:47.809Z,7.17
2018-09-13T22:44:15.277Z,6.90
2018-09-13T22:46:42.588Z,8.08
2018-09-13T22:49:10.424Z,7.70
2018-09-13T22:51:42.486Z,6.95
2018-09-13T22:54:10.797Z,6.75
2018-09-13T22:56:43.229Z,7.92
2018-09-13T22:59:11.567Z,7.30
2018-09-13T23:01:38.936Z,7.53
2018-09-13T23:04:06.587Z,7.40
2018-09-13T23:06:33.959Z,7.17
2018-09-13T23:09:01.395Z,7.15
2018-09-13T23:11:28.794Z,7.03
2018-09-13T23:13:56.288Z,6.78
2018-09-13T23:16:23.907Z,7.35
2018-09-13T23:18:51.332Z,7.37
2018-09-13T23:21:19.017Z,8.28
2018-09-13T23:23:46.472Z,8.53
2018-09-13T23:26:14.618Z,8.35
2018-09-13T23:28:43.449Z,8.55
2018-09-13T23:31:12.973Z,9.40
2018-09-13T23:33:40.610Z,8.88
2018-09-13T23:36:13.914Z,8.65
2018-09-13T23:38:41.291Z,8.28
2018-09-13T23:41:09.437Z,7.47
2018-09-13T23:43:36.829Z,8.55
2018-09-13T23:46:04.933Z,9.03
2018-09-13T23:48:32.335Z,8.00
2018-09-13T23:50:59.794Z,7.70
2018-09-13T23:53:28.235Z,8.45
2018-09-13T23:55:56.156Z,7.22
2018-09-13T23:58:23.994Z,6.90
